Time;durP1;ratioP1;P1;durP2;ratioP2;P2;SDS_P1;SDS_P2;PMS_P1;PMS_P2;Temp;Humidity;BMP_temperature;BMP_pressure;BME280_temperature;BME280_humidity;BME280_pressure;Samples;Min_cycle;Max_cycle;Signal;HPM_P1;HPM_P2
2023/01/22 00:01:43;;;;;;;;;;;;;;;0.39;87.79;101963.34;105207;1288;61447;-72
2023/01/22 00:04:29;;;;;;;;;;;;;;;0.39;87.76;101962.69;105238;1288;75088;-72
2023/01/22 00:07:15;;;;;;;;;;;;;;;0.39;87.76;101961.84;105127;1291;68075;-72
2023/01/22 00:10:01;;;;;;;;;;;;;;;0.39;87.72;101960.83;105114;1288;76154;-72
2023/01/22 00:12:47;;;;;;;;;;;;;;;0.40;87.81;101965.27;105104;1288;62025;-72
2023/01/22 00:15:37;;;;;;;;;;;;;;;0.40;87.86;101960.68;105078;1288;61093;-72
2023/01/22 00:18:23;;;;;;;;;;;;;;;0.39;87.84;101961.17;105201;1287;74092;-72
2023/01/22 00:21:10;;;;;;;;;;;;;;;0.41;87.78;101961.57;105225;1288;67495;-72
2023/01/22 00:23:56;;;;;;;;;;;;;;;0.41;87.86;101965.83;105206;1287;71153;-72
2023/01/22 00:26:42;;;;;;;;;;;;;;;0.39;87.85;101965.06;105186;1288;61276;-72
2023/01/22 00:29:28;;;;;;;;;;;;;;;0.38;87.78;101965.35;105226;1288;61158;-72
2023/01/22 00:32:14;;;;;;;;;;;;;;;0.39;87.88;101972.17;105278;1288;74391;-72
2023/01/22 00:35:00;;;;;;;;;;;;;;;0.40;87.89;101977.98;105270;1288;67693;-71
2023/01/22 00:37:47;;;;;;;;;;;;;;;0.40;87.85;101978.34;105129;1287;72289;-72
2023/01/22 00:40:33;;;;;;;;;;;;;;;0.42;87.88;101979.44;105142;1288;59261;-72
2023/01/22 00:43:19;;;;;;;;;;;;;;;0.42;87.86;101978.44;105240;1288;61258;-72
2023/01/22 00:46:06;;;;;;;;;;;;;;;0.42;87.89;101984.02;105208;1288;73268;-72
2023/01/22 00:48:52;;;;;;;;;;;;;;;0.43;87.88;101985.41;105081;1289;67276;-72
2023/01/22 00:51:39;;;;;;;;;;;;;;;0.44;87.90;101986.31;105209;1291;71502;-72
2023/01/22 00:54:25;;;;;;;;;;;;;;;0.46;87.94;101983.35;105159;1288;60110;-72
2023/01/22 00:57:11;;;;;;;;;;;;;;;0.46;87.95;101978.45;105154;1289;61246;-72
2023/01/22 00:59:57;;;;;;;;;;;;;;;0.47;87.99;101983.39;105224;1288;76075;-72
2023/01/22 01:05:48;;;;;;;;;;;;;;;0.46;87.97;101993.70;105091;1288;71275;-72
2023/01/22 01:08:35;;;;;;;;;;;;;;;0.47;88.00;101995.61;105057;1288;61289;-72
2023/01/22 01:11:22;;;;;;;;;;;;;;;0.45;88.03;101996.06;105160;1288;61142;-72
2023/01/22 01:14:08;;;;;;;;;;;;;;;0.45;87.96;101998.75;105240;1291;75992;-72
2023/01/22 01:16:54;;;;;;;;;;;;;;;0.45;87.97;101995.70;105102;1288;67097;-72
2023/01/22 01:19:40;;;;;;;;;;;;;;;0.45;88.03;101998.61;105185;1288;72813;-72
2023/01/22 01:22:26;;;;;;;;;;;;;;;0.46;87.98;101996.44;105225;1288;61260;-72
2023/01/22 01:25:12;;;;;;;;;;;;;;;0.45;88.00;101998.23;105234;1288;60210;-72
2023/01/22 01:27:58;;;;;;;;;;;;;;;0.45;87.98;101993.17;105261;1289;74920;-72
2023/01/22 01:30:45;;;;;;;;;;;;;;;0.44;87.96;101994.27;105225;1288;67184;-72
2023/01/22 01:33:31;;;;;;;;;;;;;;;0.44;88.01;101996.33;105184;1287;71883;-72
2023/01/22 01:36:18;;;;;;;;;;;;;;;0.44;88.03;102000.08;105237;1291;61260;-72
2023/01/22 01:39:04;;;;;;;;;;;;;;;0.46;88.06;101997.95;105302;1288;59463;-72
2023/01/22 01:41:50;;;;;;;;;;;;;;;0.46;88.05;102001.19;105217;1288;74293;-72
2023/01/22 01:44:36;;;;;;;;;;;;;;;0.47;88.05;101996.80;105063;1289;67367;-72
2023/01/22 01:47:32;;;;;;;;;;;;;;;0.47;88.13;101995.29;105125;1288;71204;-72
2023/01/22 01:50:20;;;;;;;;;;;;;;;0.46;88.03;101992.02;105196;1287;61062;-72
2023/01/22 01:53:07;;;;;;;;;;;;;;;0.46;88.07;101992.54;105069;1290;61239;-72
2023/01/22 01:55:54;;;;;;;;;;;;;;;0.46;88.03;101994.23;105071;1288;73220;-72
2023/01/22 01:58:41;;;;;;;;;;;;;;;0.46;88.07;101997.43;105204;1291;67189;-72
2023/01/22 02:01:28;;;;;;;;;;;;;;;0.46;88.04;102003.05;105086;1287;70394;-72
2023/01/22 02:04:14;;;;;;;;;;;;;;;0.48;88.13;102004.01;105215;1287;61257;-72
2023/01/22 02:07:02;;;;;;;;;;;;;;;0.49;88.09;102007.41;105244;1288;61078;-72
2023/01/22 02:09:48;;;;;;;;;;;;;;;0.48;88.09;102007.73;105133;1291;73323;-72
2023/01/22 02:12:34;;;;;;;;;;;;;;;0.49;88.08;102011.14;105265;1291;67173;-72
2023/01/22 02:15:20;;;;;;;;;;;;;;;0.48;88.08;102010.75;105217;1291;71084;-72
2023/01/22 02:18:06;;;;;;;;;;;;;;;0.47;88.10;102010.07;105217;1287;61393;-72
2023/01/22 02:20:56;;;;;;;;;;;;;;;0.47;88.05;102011.77;105254;1288;61191;-72
2023/01/22 02:23:43;;;;;;;;;;;;;;;0.48;88.17;102011.98;105239;1288;76004;-72
2023/01/22 02:26:29;;;;;;;;;;;;;;;0.48;88.17;102010.08;105225;1288;67232;-72
2023/01/22 02:29:15;;;;;;;;;;;;;;;0.49;88.14;102016.75;105090;1288;76049;-72
2023/01/22 02:32:01;;;;;;;;;;;;;;;0.49;88.12;102023.73;105235;1289;61291;-72
2023/01/22 02:34:47;;;;;;;;;;;;;;;0.50;88.13;102025.65;105224;1288;61081;-72
2023/01/22 02:37:33;;;;;;;;;;;;;;;0.50;88.14;102026.48;105076;1288;73423;-71
2023/01/22 02:40:19;;;;;;;;;;;;;;;0.49;88.18;102025.06;105206;1287;67268;-71
2023/01/22 02:43:06;;;;;;;;;;;;;;;0.48;88.15;102021.98;105214;1287;72397;-71
2023/01/22 02:45:52;;;;;;;;;;;;;;;0.48;88.19;102023.16;105256;1288;61482;-71
2023/01/22 02:48:38;;;;;;;;;;;;;;;0.49;88.16;102027.25;104876;1291;445658;-71
2023/01/22 02:51:25;;;;;;;;;;;;;;;0.48;88.24;102027.06;105075;1287;73660;-71
2023/01/22 02:54:11;;;;;;;;;;;;;;;0.47;88.15;102027.52;105127;1288;68666;-71
2023/01/22 02:56:57;;;;;;;;;;;;;;;0.45;88.20;102026.60;105098;1288;71248;-71
2023/01/22 02:59:43;;;;;;;;;;;;;;;0.45;88.20;102024.36;105212;1287;61171;-71
2023/01/22 03:02:29;;;;;;;;;;;;;;;0.45;88.25;102026.75;105067;1288;61267;-71
2023/01/22 03:05:15;;;;;;;;;;;;;;;0.44;88.22;102027.55;105238;1288;76034;-71
2023/01/22 03:08:01;;;;;;;;;;;;;;;0.45;88.31;102028.94;105205;1288;70001;-72
2023/01/22 03:10:47;;;;;;;;;;;;;;;0.46;88.24;102033.39;105090;1288;72579;-72
2023/01/22 03:22:48;;;;;;;;;;;;;;;0.46;88.33;102039.84;105160;1288;67406;-72
2023/01/22 03:25:34;;;;;;;;;;;;;;;0.47;88.32;102043.30;105235;1288;73022;-72
2023/01/22 03:28:20;;;;;;;;;;;;;;;0.46;88.35;102047.67;105229;1288;61609;-72
2023/01/22 03:31:06;;;;;;;;;;;;;;;0.46;88.31;102049.86;105263;1287;61125;-72
2023/01/22 03:33:52;;;;;;;;;;;;;;;0.46;88.32;102048.86;105102;1287;74899;-72
2023/01/22 03:36:38;;;;;;;;;;;;;;;0.46;88.35;102047.66;105227;1288;67899;-72
2023/01/22 03:39:25;;;;;;;;;;;;;;;0.46;88.34;102059.54;105213;1288;71527;-72
2023/01/22 03:42:11;;;;;;;;;;;;;;;0.47;88.33;102060.44;105234;1288;61653;-72
2023/01/22 03:44:57;;;;;;;;;;;;;;;0.47;88.29;102059.39;105203;1288;60122;-72
2023/01/22 03:47:43;;;;;;;;;;;;;;;0.47;88.40;102060.41;105072;1287;74940;-72
2023/01/22 03:50:30;;;;;;;;;;;;;;;0.46;88.40;102065.48;105249;1288;67420;-72
2023/01/22 03:53:16;;;;;;;;;;;;;;;0.46;88.45;102064.13;105251;1288;70519;-72
2023/01/22 03:56:06;;;;;;;;;;;;;;;0.47;88.37;102066.71;105082;1287;61233;-72
2023/01/22 03:58:52;;;;;;;;;;;;;;;0.47;88.36;102065.54;105229;1288;60206;-72
2023/01/22 04:01:38;;;;;;;;;;;;;;;0.48;88.38;102065.05;105206;1288;74653;-72
2023/01/22 04:04:24;;;;;;;;;;;;;;;0.47;88.35;102064.85;105185;1288;68902;-71
2023/01/22 04:07:10;;;;;;;;;;;;;;;0.46;88.47;102068.02;105078;1289;71217;-71
2023/01/22 04:09:56;;;;;;;;;;;;;;;0.45;88.37;102065.79;105243;1288;61400;-71
2023/01/22 04:12:42;;;;;;;;;;;;;;;0.46;88.41;102066.98;105108;1288;61289;-71
2023/01/22 04:15:29;;;;;;;;;;;;;;;0.46;88.43;102068.20;105233;1287;74135;-71
2023/01/22 04:18:15;;;;;;;;;;;;;;;0.46;88.38;102073.12;105194;1288;69064;-71
2023/01/22 04:21:01;;;;;;;;;;;;;;;0.46;88.43;102077.70;105217;1288;72617;-72
2023/01/22 04:23:47;;;;;;;;;;;;;;;0.46;88.38;102078.86;105224;1287;61096;-71
2023/01/22 04:26:33;;;;;;;;;;;;;;;0.46;88.41;102077.02;105225;1288;61065;-71
2023/01/22 04:29:19;;;;;;;;;;;;;;;0.45;88.44;102074.25;105172;1289;74104;-71
2023/01/22 04:32:05;;;;;;;;;;;;;;;0.45;88.47;102077.30;105193;1289;67106;-72
2023/01/22 04:34:51;;;;;;;;;;;;;;;0.46;88.44;102081.60;105090;1289;72330;-72
2023/01/22 04:37:37;;;;;;;;;;;;;;;0.47;88.45;102087.91;105057;1289;61213;-72
2023/01/22 04:40:23;;;;;;;;;;;;;;;0.47;88.42;102083.02;105011;1288;61042;-71
2023/01/22 04:43:09;;;;;;;;;;;;;;;0.47;88.46;102083.66;105093;1288;73466;-71
2023/01/22 04:45:55;;;;;;;;;;;;;;;0.47;88.44;102089.95;105173;1288;68187;-71
2023/01/22 04:48:42;;;;;;;;;;;;;;;0.47;88.47;102090.64;105169;1289;71647;-71
2023/01/22 04:51:28;;;;;;;;;;;;;;;0.47;88.42;102093.83;105133;1289;61550;-71
2023/01/22 04:54:14;;;;;;;;;;;;;;;0.46;88.42;102094.13;105105;1288;60099;-72
2023/01/22 04:57:00;;;;;;;;;;;;;;;0.45;88.45;102098.17;105119;1290;77339;-72
2023/01/22 04:59:46;;;;;;;;;;;;;;;0.47;88.47;102101.48;105083;1291;69339;-72
2023/01/22 05:02:32;;;;;;;;;;;;;;;0.47;88.48;102106.26;105097;1291;73229;-72
2023/01/22 05:05:19;;;;;;;;;;;;;;;0.48;88.42;102106.80;105028;1291;61191;-71
2023/01/22 05:08:05;;;;;;;;;;;;;;;0.49;88.54;102111.91;105045;1292;62574;-71
2023/01/22 05:10:51;;;;;;;;;;;;;;;0.48;88.52;102116.66;105105;1291;73599;-71
2023/01/22 05:13:37;;;;;;;;;;;;;;;0.48;88.50;102118.85;105158;1287;69875;-71
2023/01/22 05:16:23;;;;;;;;;;;;;;;0.48;88.49;102126.64;105149;1290;71137;-71
2023/01/22 05:19:09;;;;;;;;;;;;;;;0.49;88.51;102128.36;105040;1289;59531;-71
2023/01/22 05:21:55;;;;;;;;;;;;;;;0.48;88.53;102128.52;105087;1288;58951;-71
2023/01/22 05:24:41;;;;;;;;;;;;;;;0.48;88.54;102134.64;105156;1288;74109;-71
2023/01/22 05:27:27;;;;;;;;;;;;;;;0.49;88.54;102134.48;105183;1288;71460;-71
2023/01/22 05:30:13;;;;;;;;;;;;;;;0.48;88.52;102133.92;105125;1293;71264;-71
2023/01/22 05:33:00;;;;;;;;;;;;;;;0.48;88.51;102138.36;105178;1288;61207;-71
2023/01/22 05:35:54;;;;;;;;;;;;;;;0.49;88.52;102141.45;105112;1288;59194;-71
2023/01/22 05:38:40;;;;;;;;;;;;;;;0.50;88.57;102142.69;105143;1288;72976;-71
2023/01/22 05:41:26;;;;;;;;;;;;;;;0.52;88.62;102144.30;105156;1288;68472;-71
2023/01/22 05:44:12;;;;;;;;;;;;;;;0.52;88.58;102146.69;105121;1287;73093;-71
2023/01/22 05:46:59;;;;;;;;;;;;;;;0.53;88.58;102147.75;105095;1290;61280;-71
2023/01/22 05:49:45;;;;;;;;;;;;;;;0.55;88.56;102155.46;105081;1290;61525;-71
2023/01/22 05:52:31;;;;;;;;;;;;;;;0.56;88.66;102159.77;105140;1289;76000;-71
2023/01/22 05:55:17;;;;;;;;;;;;;;;0.56;88.63;102162.30;105016;1288;67727;-71
2023/01/22 05:58:04;;;;;;;;;;;;;;;0.56;88.58;102161.14;105167;1288;72630;-71
2023/01/22 06:00:51;;;;;;;;;;;;;;;0.57;88.61;102162.52;105081;1289;61656;-71
2023/01/22 06:03:37;;;;;;;;;;;;;;;0.57;88.59;102165.27;105045;1290;64267;-71
2023/01/22 06:06:23;;;;;;;;;;;;;;;0.56;88.54;102166.20;105095;1291;73319;-71
2023/01/22 06:09:10;;;;;;;;;;;;;;;0.55;88.64;102166.48;105077;1292;68323;-71
2023/01/22 06:11:56;;;;;;;;;;;;;;;0.55;88.64;102169.55;105051;1288;73189;-71
2023/01/22 06:14:42;;;;;;;;;;;;;;;0.56;88.64;102171.46;105245;1288;64256;-71
2023/01/22 06:17:28;;;;;;;;;;;;;;;0.56;88.67;102178.75;105114;1289;62820;-71
2023/01/22 06:20:14;;;;;;;;;;;;;;;0.56;88.64;102181.48;105073;1292;73455;-71
2023/01/22 06:23:01;;;;;;;;;;;;;;;0.56;88.62;102183.52;105187;1287;68074;-71
2023/01/22 06:25:51;;;;;;;;;;;;;;;0.55;88.68;102186.04;105158;1288;71062;-71
2023/01/22 06:28:37;;;;;;;;;;;;;;;0.55;88.59;102191.94;104996;1290;59526;-71
2023/01/22 06:31:23;;;;;;;;;;;;;;;0.55;88.63;102190.24;105048;1290;63055;-71
2023/01/22 06:34:09;;;;;;;;;;;;;;;0.54;88.64;102194.77;105124;1288;73465;-71
2023/01/22 06:36:55;;;;;;;;;;;;;;;0.54;88.65;102195.96;105087;1288;68657;-71
2023/01/22 06:39:41;;;;;;;;;;;;;;;0.55;88.70;102199.92;105043;1288;71498;-71
2023/01/22 06:42:27;;;;;;;;;;;;;;;0.55;88.71;102204.64;105184;1291;61100;-71
2023/01/22 06:45:14;;;;;;;;;;;;;;;0.54;88.68;102206.98;105167;1288;60947;-71
2023/01/22 06:48:01;;;;;;;;;;;;;;;0.53;88.70;102207.13;105210;1288;76052;-72
2023/01/22 06:50:47;;;;;;;;;;;;;;;0.54;88.67;102205.64;105230;1288;68005;-72
2023/01/22 06:53:33;;;;;;;;;;;;;;;0.55;88.68;102204.81;105227;1288;71208;-72
2023/01/22 06:56:19;;;;;;;;;;;;;;;0.54;88.63;102210.91;104839;1289;61894;-72
2023/01/22 06:59:05;;;;;;;;;;;;;;;0.53;88.68;102215.77;104901;1291;61060;-72
2023/01/22 07:01:51;;;;;;;;;;;;;;;0.53;88.71;102217.98;105087;1288;76056;-71
2023/01/22 07:04:37;;;;;;;;;;;;;;;0.53;88.67;102217.12;104952;1288;67230;-71
2023/01/22 07:07:24;;;;;;;;;;;;;;;0.53;88.76;102216.78;104898;1290;73642;-71
2023/01/22 07:10:10;;;;;;;;;;;;;;;0.53;88.73;102220.01;105051;1291;62530;-71
2023/01/22 07:13:00;;;;;;;;;;;;;;;0.53;88.76;102224.94;105030;1291;59683;-72
2023/01/22 07:15:46;;;;;;;;;;;;;;;0.53;88.73;102224.91;104885;1291;73252;-71
2023/01/22 07:18:32;;;;;;;;;;;;;;;0.54;88.71;102225.63;105052;1291;68430;-71
2023/01/22 07:21:19;;;;;;;;;;;;;;;0.52;88.74;102230.50;105052;1290;71241;-71
2023/01/22 07:24:05;;;;;;;;;;;;;;;0.53;88.75;102234.77;105055;1290;59878;-71
2023/01/22 07:26:51;;;;;;;;;;;;;;;0.52;88.75;102239.15;105070;1290;59755;-71
2023/01/22 07:29:37;;;;;;;;;;;;;;;0.52;88.80;102243.05;105062;1292;73195;-71
2023/01/22 07:32:23;;;;;;;;;;;;;;;0.53;88.81;102249.86;105086;1293;71408;-71
2023/01/22 07:35:09;;;;;;;;;;;;;;;0.54;88.66;102253.15;104944;1291;75392;-71
2023/01/22 07:37:56;;;;;;;;;;;;;;;0.57;88.82;102259.73;104947;1290;61222;-71
2023/01/22 07:40:43;;;;;;;;;;;;;;;0.58;88.82;102261.98;104840;1291;61491;-71
2023/01/22 07:43:29;;;;;;;;;;;;;;;0.57;88.84;102264.48;105031;1289;74639;-71
2023/01/22 07:46:15;;;;;;;;;;;;;;;0.57;88.78;102262.27;104964;1290;67632;-71
2023/01/22 07:49:01;;;;;;;;;;;;;;;0.57;88.75;102268.08;105015;1291;70570;-71
2023/01/22 07:51:47;;;;;;;;;;;;;;;0.57;88.79;102272.98;104940;1292;59360;-71
2023/01/22 07:54:35;;;;;;;;;;;;;;;0.56;88.80;102275.48;105108;1293;61094;-71
2023/01/22 07:57:21;;;;;;;;;;;;;;;0.56;88.77;102281.23;104948;1290;73328;-71
2023/01/22 08:00:09;;;;;;;;;;;;;;;0.57;88.95;102280.30;105007;1289;67914;-71
2023/01/22 08:02:55;;;;;;;;;;;;;;;0.57;88.88;102280.96;104893;1291;74009;-71
2023/01/22 08:05:42;;;;;;;;;;;;;;;0.58;88.85;102282.89;105059;1291;61187;-71
2023/01/22 08:08:28;;;;;;;;;;;;;;;0.59;88.86;102289.19;105029;1291;61883;-72
2023/01/22 08:11:14;;;;;;;;;;;;;;;0.59;88.90;102296.67;104979;1290;73287;-71
2023/01/22 08:14:00;;;;;;;;;;;;;;;0.60;88.85;102294.67;104949;1291;67788;-71
2023/01/22 08:16:46;;;;;;;;;;;;;;;0.61;88.94;102291.69;105042;1291;71360;-71
2023/01/22 08:19:32;;;;;;;;;;;;;;;0.61;88.85;102295.09;105017;1291;60303;-71
2023/01/22 08:22:18;;;;;;;;;;;;;;;0.62;88.82;102298.84;105125;1290;61447;-72
2023/01/22 08:25:05;;;;;;;;;;;;;;;0.62;88.87;102301.23;104922;1291;77469;-72
2023/01/22 08:27:51;;;;;;;;;;;;;;;0.64;88.89;102299.14;105061;1290;67867;-72
2023/01/22 08:30:37;;;;;;;;;;;;;;;0.64;88.89;102295.55;104944;1291;71382;-72
2023/01/22 08:33:23;;;;;;;;;;;;;;;0.64;88.93;102299.97;105054;1290;61513;-73
2023/01/22 08:36:10;;;;;;;;;;;;;;;0.63;88.90;102298.92;104973;1290;61297;-72
2023/01/22 08:38:56;;;;;;;;;;;;;;;0.63;88.94;102302.83;104988;1290;73747;-72
2023/01/22 08:41:42;;;;;;;;;;;;;;;0.63;88.92;102299.80;104962;1290;67293;-72
2023/01/22 08:44:28;;;;;;;;;;;;;;;0.63;88.91;102306.06;105075;1291;71191;-72
2023/01/22 08:47:14;;;;;;;;;;;;;;;0.63;88.94;102309.96;105007;1290;61231;-72
2023/01/22 08:50:01;;;;;;;;;;;;;;;0.63;88.89;102311.51;105062;1291;59847;-73
2023/01/22 08:52:47;;;;;;;;;;;;;;;0.65;88.93;102311.90;104938;1290;74367;-72
2023/01/22 08:55:33;;;;;;;;;;;;;;;0.65;88.88;102315.98;105115;1291;68503;-72
2023/01/22 08:58:21;;;;;;;;;;;;;;;0.65;88.94;102316.67;105020;1292;70182;-72
2023/01/22 09:01:07;;;;;;;;;;;;;;;0.66;88.98;102314.20;105045;1290;61360;-72
2023/01/22 09:03:53;;;;;;;;;;;;;;;0.67;88.99;102313.56;105032;1289;62903;-72
2023/01/22 09:06:39;;;;;;;;;;;;;;;0.69;88.97;102317.02;105034;1290;73151;-72
2023/01/22 09:09:25;;;;;;;;;;;;;;;0.70;88.93;102313.66;105014;1291;68468;-72
2023/01/22 09:12:11;;;;;;;;;;;;;;;0.73;89.03;102317.22;105004;1289;71368;-72
2023/01/22 09:14:57;;;;;;;;;;;;;;;0.75;89.01;102321.06;105067;1289;61648;-72
2023/01/22 09:17:43;;;;;;;;;;;;;;;0.76;89.02;102324.70;105056;1289;59382;-72
2023/01/22 09:20:29;;;;;;;;;;;;;;;0.77;89.04;102323.41;104910;1291;73209;-73
2023/01/22 09:23:16;;;;;;;;;;;;;;;0.79;89.02;102326.73;104953;1293;71523;-73
2023/01/22 09:26:02;;;;;;;;;;;;;;;0.81;89.01;102330.72;104924;1290;71363;-72
2023/01/22 09:28:48;;;;;;;;;;;;;;;0.80;89.01;102332.20;104947;1292;62060;-72
2023/01/22 09:31:35;;;;;;;;;;;;;;;0.80;88.99;102332.36;104983;1290;61201;-73
2023/01/22 09:34:21;;;;;;;;;;;;;;;0.82;89.01;102331.63;104897;1296;75049;-72
2023/01/22 09:37:09;;;;;;;;;;;;;;;0.83;89.05;102335.58;104864;1290;68413;-72
2023/01/22 09:39:55;;;;;;;;;;;;;;;0.85;89.04;102333.13;104781;1291;71247;-72
2023/01/22 09:42:42;;;;;;;;;;;;;;;0.84;88.97;102333.97;104994;1291;62481;-72
2023/01/22 09:45:28;;;;;;;;;;;;;;;0.85;88.98;102334.35;105008;1289;59054;-72
2023/01/22 09:48:17;;;;;;;;;;;;;;;0.88;89.06;102331.10;104822;1291;75988;-72
2023/01/22 09:51:04;;;;;;;;;;;;;;;0.89;89.05;102334.52;104847;1291;67936;-72
2023/01/22 09:53:52;;;;;;;;;;;;;;;0.90;89.06;102336.83;104910;1291;71171;-72
2023/01/22 09:56:43;;;;;;;;;;;;;;;0.92;89.01;102338.42;104905;1290;61146;-73
2023/01/22 09:59:31;;;;;;;;;;;;;;;0.94;89.07;102332.95;104869;1295;59301;-72
2023/01/22 10:02:17;;;;;;;;;;;;;;;0.94;89.02;102339.22;104945;1291;74056;-72
2023/01/22 10:05:19;;;;;;;;;;;;;;;0.95;88.97;102337.05;104969;1293;69325;-72
2023/01/22 10:08:12;;;;;;;;;;;;;;;0.95;88.97;102341.30;104887;1293;74110;-72
2023/01/22 10:10:59;;;;;;;;;;;;;;;0.96;89.05;102343.54;104868;1290;62214;-72
2023/01/22 10:13:48;;;;;;;;;;;;;;;0.97;89.05;102343.75;104957;1294;61376;-72
2023/01/22 10:16:35;;;;;;;;;;;;;;;0.99;89.08;102343.38;104978;1291;73436;-72
2023/01/22 10:19:23;;;;;;;;;;;;;;;1.01;89.10;102346.69;104999;1291;69472;-72
2023/01/22 10:22:12;;;;;;;;;;;;;;;1.04;89.11;102351.40;104835;1294;72163;-72
2023/01/22 10:24:58;;;;;;;;;;;;;;;1.06;89.08;102350.82;104901;1290;61413;-72
2023/01/22 10:27:45;;;;;;;;;;;;;;;1.08;89.12;102351.59;104861;1291;61517;-73
2023/01/22 10:30:31;;;;;;;;;;;;;;;1.09;89.09;102345.20;104928;1291;74978;-71
2023/01/22 10:33:20;;;;;;;;;;;;;;;1.09;89.08;102342.48;104959;1290;68000;-71
2023/01/22 10:36:06;;;;;;;;;;;;;;;1.10;89.07;102347.80;104987;1291;72227;-71
2023/01/22 10:39:12;;;;;;;;;;;;;;;1.09;89.07;102346.88;105084;1290;61141;-71
2023/01/22 10:42:01;;;;;;;;;;;;;;;1.11;89.12;102348.86;104913;1290;59596;-71
2023/01/22 10:44:47;;;;;;;;;;;;;;;1.13;89.10;102349.14;105001;1291;73263;-71
2023/01/22 10:47:33;;;;;;;;;;;;;;;1.14;89.04;102352.39;104966;1289;68696;-71
2023/01/22 10:50:19;;;;;;;;;;;;;;;1.12;89.06;102359.60;104820;1295;71894;-71
2023/01/22 10:53:28;;;;;;;;;;;;;;;1.12;89.09;102357.90;105034;1290;61332;-71
2023/01/22 10:56:25;;;;;;;;;;;;;;;1.13;89.07;102356.95;105026;1294;62180;-71
2023/01/22 10:59:21;;;;;;;;;;;;;;;1.11;89.06;102358.39;105058;1291;74733;-71
2023/01/22 11:02:16;;;;;;;;;;;;;;;1.11;89.10;102358.52;104936;1292;69058;-71
2023/01/22 11:05:16;;;;;;;;;;;;;;;1.12;89.09;102359.77;104989;1289;71258;-70
2023/01/22 11:08:10;;;;;;;;;;;;;;;1.12;89.10;102357.08;104993;1290;61274;-71
2023/01/22 11:11:01;;;;;;;;;;;;;;;1.12;89.05;102357.08;105088;1291;61159;-71
2023/01/22 11:14:06;;;;;;;;;;;;;;;1.11;89.04;102352.96;106070;1289;73130;-72
2023/01/22 11:16:55;;;;;;;;;;;;;;;1.11;89.08;102356.36;105640;1291;69641;-71
2023/01/22 11:19:46;;;;;;;;;;;;;;;1.10;89.05;102361.91;104918;1290;71220;-71
2023/01/22 11:22:37;;;;;;;;;;;;;;;1.10;89.03;102365.61;104872;1293;61237;-71
2023/01/22 11:25:24;;;;;;;;;;;;;;;1.08;89.04;102368.08;105047;1289;59751;-71
2023/01/22 11:28:31;;;;;;;;;;;;;;;1.07;89.07;102372.45;105055;1291;74640;-71
2023/01/22 11:31:22;;;;;;;;;;;;;;;1.04;89.08;102375.70;104528;1297;67308;-71
2023/01/22 11:34:30;;;;;;;;;;;;;;;1.03;89.04;102373.45;104515;1297;73414;-71
2023/01/22 11:37:18;;;;;;;;;;;;;;;1.02;89.11;102375.45;104485;1296;61229;-71
2023/01/22 11:40:04;;;;;;;;;;;;;;;1.03;89.13;102371.89;104483;1297;62914;-71
2023/01/22 11:43:01;;;;;;;;;;;;;;;1.02;89.12;102367.43;104547;1296;73247;-71
2023/01/22 11:46:03;;;;;;;;;;;;;;;1.01;89.12;102362.63;104480;1297;67403;-71
2023/01/22 11:48:56;;;;;;;;;;;;;;;0.99;89.11;102363.43;104493;1296;71174;-71
2023/01/22 11:51:42;;;;;;;;;;;;;;;0.98;89.09;102361.98;104528;1298;61263;-73
2023/01/22 11:55:04;;;;;;;;;;;;;;;0.96;89.09;102364.13;104547;1299;59449;-73
2023/01/22 11:58:08;;;;;;;;;;;;;;;0.96;89.13;102363.58;104084;1302;74487;-71
2023/01/22 12:00:57;;;;;;;;;;;;;;;0.95;89.13;102359.98;104115;1305;67207;-71
2023/01/22 12:03:53;;;;;;;;;;;;;;;0.95;89.06;102355.21;104032;1302;74474;-69
2023/01/22 12:06:51;;;;;;;;;;;;;;;0.96;89.21;102361.86;104087;1300;61221;-69
2023/01/22 12:09:37;;;;;;;;;;;;;;;0.94;89.16;102362.30;104363;1296;62823;-69
2023/01/22 12:12:42;;;;;;;;;;;;;;;0.94;89.15;102368.73;104358;1297;75495;-69
2023/01/22 12:15:40;;;;;;;;;;;;;;;0.92;89.15;102365.10;104398;1299;68959;-70
2023/01/22 12:18:50;;;;;;;;;;;;;;;0.93;89.27;102366.34;104422;1297;71905;-69
2023/01/22 12:21:55;;;;;;;;;;;;;;;0.94;89.24;102366.18;104447;1296;59839;-69
2023/01/22 12:24:41;;;;;;;;;;;;;;;0.95;89.28;102363.86;104365;1295;59289;-69
2023/01/22 12:27:56;;;;;;;;;;;;;;;0.94;89.25;102361.63;104359;1297;74417;-70
2023/01/22 12:30:58;;;;;;;;;;;;;;;0.95;89.32;102359.98;104454;1299;67410;-69
2023/01/22 12:33:44;;;;;;;;;;;;;;;0.95;89.28;102359.98;104914;1292;71298;-70
2023/01/22 12:36:31;;;;;;;;;;;;;;;0.93;89.27;102362.91;105008;1293;60116;-70
2023/01/22 12:39:27;;;;;;;;;;;;;;;0.92;89.28;102363.21;105074;1292;62847;-69
2023/01/22 12:42:16;;;;;;;;;;;;;;;0.93;89.33;102363.95;105011;1290;74684;-69
2023/01/22 12:45:05;;;;;;;;;;;;;;;0.93;89.33;102371.24;104975;1292;67479;-69
2023/01/22 12:47:51;;;;;;;;;;;;;;;0.92;89.32;102371.68;105013;1291;71397;-69
2023/01/22 12:50:46;;;;;;;;;;;;;;;0.91;89.34;102374.55;104990;1291;61019;-69
2023/01/22 12:53:33;;;;;;;;;;;;;;;0.93;89.40;102371.23;104933;1289;59464;-70
2023/01/22 12:56:29;;;;;;;;;;;;;;;0.92;89.39;102374.94;104907;1291;152975;-70
2023/01/22 12:59:43;;;;;;;;;;;;;;;0.93;89.36;102368.67;104905;1291;71393;-70
2023/01/22 13:02:34;;;;;;;;;;;;;;;0.93;89.44;102368.02;104943;1293;71251;-70
2023/01/22 13:05:29;;;;;;;;;;;;;;;0.93;89.35;102371.59;105070;1289;61145;-70
2023/01/22 13:08:15;;;;;;;;;;;;;;;0.93;89.43;102376.34;104996;1290;59556;-70
2023/01/22 13:11:07;;;;;;;;;;;;;;;0.93;89.34;102377.67;105005;1291;73184;-70
2023/01/22 13:13:55;;;;;;;;;;;;;;;0.94;89.43;102382.85;105033;1293;67262;-70
2023/01/22 13:16:48;;;;;;;;;;;;;;;0.94;89.44;102383.53;104952;1289;70701;-71
2023/01/22 13:19:38;;;;;;;;;;;;;;;0.94;89.39;102387.61;104846;1291;60208;-71
2023/01/22 13:22:25;;;;;;;;;;;;;;;0.95;89.41;102390.19;105072;1289;61224;-71
2023/01/22 13:25:22;;;;;;;;;;;;;;;0.93;89.38;102390.61;105015;1291;73118;-71
2023/01/22 13:28:14;;;;;;;;;;;;;;;0.92;89.40;102390.57;104924;1289;69119;-71
2023/01/22 13:31:02;;;;;;;;;;;;;;;0.91;89.37;102390.84;104904;1294;74869;-71
2023/01/22 13:33:55;;;;;;;;;;;;;;;0.92;89.49;102394.79;104862;1292;61019;-70
2023/01/22 13:36:45;;;;;;;;;;;;;;;0.92;89.42;102394.10;104920;1290;59867;-70
2023/01/22 13:39:32;;;;;;;;;;;;;;;0.92;89.48;102394.64;105100;1293;73657;-70
2023/01/22 13:42:20;;;;;;;;;;;;;;;0.93;89.44;102396.73;105084;1294;68235;-70
2023/01/22 13:45:13;;;;;;;;;;;;;;;0.93;89.41;102400.44;105037;1292;71319;-70
2023/01/22 13:48:01;;;;;;;;;;;;;;;0.94;89.46;102400.99;104985;1291;61269;-70
2023/01/22 13:50:54;;;;;;;;;;;;;;;0.95;89.47;102403.95;104957;1294;61143;-70
2023/01/22 13:53:43;;;;;;;;;;;;;;;0.95;89.47;102407.88;106051;1293;73081;-71
2023/01/22 13:56:29;;;;;;;;;;;;;;;0.95;89.44;102409.05;106052;1289;68710;-71
2023/01/22 13:59:26;;;;;;;;;;;;;;;0.95;89.50;102410.93;106008;1291;72285;-71
2023/01/22 14:02:18;;;;;;;;;;;;;;;0.96;89.43;102410.12;105893;1289;59125;-71
2023/01/22 14:05:15;;;;;;;;;;;;;;;0.97;89.43;102410.86;106046;1288;59957;-73
2023/01/22 14:08:05;;;;;;;;;;;;;;;0.97;89.38;102410.86;106045;1289;73429;-73
2023/01/22 14:10:58;;;;;;;;;;;;;;;0.97;89.40;102412.06;106018;1292;69096;-73
2023/01/22 14:13:45;;;;;;;;;;;;;;;0.99;89.37;102412.98;105861;1289;71287;-73
2023/01/22 14:16:40;;;;;;;;;;;;;;;0.99;89.37;102414.67;105844;1289;59413;-73
2023/01/22 14:19:27;;;;;;;;;;;;;;;0.99;89.40;102412.84;106031;1289;59404;-73
2023/01/22 14:22:13;;;;;;;;;;;;;;;1.02;89.44;102415.67;105407;1294;73509;-73
2023/01/22 14:24:59;;;;;;;;;;;;;;;1.02;89.47;102419.59;105069;1290;67178;-72
2023/01/22 14:27:47;;;;;;;;;;;;;;;1.01;89.33;102418.50;105007;1293;71374;-72
2023/01/22 14:30:33;;;;;;;;;;;;;;;0.99;89.45;102417.23;104953;1290;59197;-72
2023/01/22 14:33:21;;;;;;;;;;;;;;;0.98;89.41;102419.05;104925;1295;61134;-72
2023/01/22 14:36:07;;;;;;;;;;;;;;;0.98;89.50;102419.75;104969;1292;75818;-72